Time;durP1;ratioP1;P1;durP2;ratioP2;P2;SDS_P1;SDS_P2;PMS_P1;PMS_P2;Temp;Humidity;BMP_temperature;BMP_pressure;BME280_temperature;BME280_humidity;BME280_pressure;Samples;Min_cycle;Max_cycle;Signal;HPM_P1;HPM_P2
2021/06/29 12:00:36;;;;;;;12.47;4.22;;;;;;;25.29;97.66;100720.11;1754263;80;37357;-85
2021/06/29 13:47:03;;;;;;;5.65;3.02;;;;;;;27.73;100.00;100605.27;1765402;80;21116;-86
2021/06/29 13:49:29;;;;;;;8.25;3.10;;;;;;;27.69;100.00;100606.42;1764079;81;21016;-90
2021/06/29 13:52:11;;;;;;;5.03;2.85;;;;;;;27.70;100.00;100617.70;1763904;81;21059;-87
2021/06/29 13:54:39;;;;;;;5.22;3.10;;;;;;;27.78;100.00;100611.09;1713467;83;21070;-92
2021/06/29 13:57:09;;;;;;;4.53;3.05;;;;;;;27.73;100.00;100612.20;1713834;83;21027;-87
2021/06/29 13:59:39;;;;;;;5.28;3.10;;;;;;;27.67;100.00;100614.30;1713488;83;20990;-88
2021/06/29 14:02:06;;;;;;;4.97;3.08;;;;;;;27.72;100.00;100616.75;1713762;83;20932;-88
2021/06/29 14:04:52;;;;;;;4.22;3.00;;;;;;;27.75;100.00;100610.45;1713709;83;21024;-86
2021/06/29 14:07:19;;;;;;;4.97;2.98;;;;;;;27.70;100.00;100608.01;1713710;83;21561;-85
2021/06/29 14:09:47;;;;;;;3.37;2.70;;;;;;;27.39;100.00;100615.52;1713767;83;21166;-87
2021/06/29 14:12:28;;;;;;;4.45;2.60;;;;;;;27.20;100.00;100603.96;1713719;83;20983;-83
2021/06/29 14:15:12;;;;;;;3.65;2.70;;;;;;;26.92;98.81;100618.93;1713506;83;20975;-85
2021/06/29 14:17:38;;;;;;;4.15;2.50;;;;;;;26.59;100.00;100609.89;1685226;84;21024;-84
2021/06/29 14:20:07;;;;;;;4.12;2.83;;;;;;;26.54;100.00;100603.27;1651328;86;20981;-84
2021/06/29 14:22:32;;;;;;;4.85;2.58;;;;;;;26.64;100.00;100606.00;1651466;86;21956;-85
2021/06/29 14:24:58;;;;;;;6.28;2.80;;;;;;;26.84;100.00;100613.65;1651212;86;20966;-85
2021/06/29 14:27:24;;;;;;;4.03;2.55;;;;;;;27.00;100.00;100609.34;1651534;86;20951;-84
2021/06/29 14:29:50;;;;;;;6.00;2.80;;;;;;;27.11;100.00;100611.11;1651406;86;21294;-85
2021/06/29 14:32:16;;;;;;;4.83;2.40;;;;;;;27.22;100.00;100604.98;1671411;85;20937;-84
2021/06/29 14:34:42;;;;;;;5.03;2.90;;;;;;;27.35;100.00;100602.98;1708836;83;21958;-85
2021/06/29 14:37:08;;;;;;;3.70;2.50;;;;;;;27.44;99.21;100604.09;1708771;83;21080;-83
2021/06/29 14:39:34;;;;;;;4.97;2.80;;;;;;;27.47;100.00;100606.12;1708920;83;20973;-85
2021/06/29 14:42:00;;;;;;;4.67;2.35;;;;;;;27.48;97.82;100597.25;1684999;84;21103;-85
2021/06/29 14:44:26;;;;;;;3.27;2.58;;;;;;;27.63;99.16;100592.90;1708966;83;20901;-85
2021/06/29 14:46:52;;;;;;;4.58;2.70;;;;;;;28.01;100.00;100587.45;1708746;83;21115;-83
2021/06/29 14:49:18;;;;;;;6.72;2.77;;;;;;;28.39;100.00;100585.47;1712514;83;20916;-87
2021/06/29 14:51:44;;;;;;;5.65;2.72;;;;;;;28.71;100.00;100590.73;1713439;83;20968;-83
2021/06/29 14:54:10;;;;;;;3.85;2.60;;;;;;;29.00;100.00;100589.55;1713980;83;21012;-84
2021/06/29 14:56:35;;;;;;;3.20;2.30;;;;;;;29.24;100.00;100597.06;1713574;83;21180;-85
2021/06/29 14:59:03;;;;;;;4.78;2.90;;;;;;;29.50;97.39;100608.52;1713734;83;21195;-84
2021/06/29 15:01:29;;;;;;;7.17;2.98;;;;;;;29.79;92.77;100608.89;1713221;83;21496;-85
2021/06/29 15:03:55;;;;;;;6.45;3.10;;;;;;;29.98;88.45;100609.77;1713460;83;20925;-85
2021/06/29 15:06:21;;;;;;;7.67;3.20;;;;;;;29.90;88.48;100603.37;1713707;83;21523;-84
2021/06/29 15:08:46;;;;;;;6.62;2.75;;;;;;;29.99;90.15;100605.20;1713660;83;20992;-84
2021/06/29 15:11:18;;;;;;;6.62;3.65;;;;;;;30.08;94.33;100600.66;1713895;83;21936;-84
2021/06/29 15:13:40;;;;;;;4.47;3.10;;;;;;;30.18;87.63;100592.95;1709447;83;21021;-83
2021/06/29 15:16:07;;;;;;;6.85;3.20;;;;;;;30.07;85.20;100587.95;1713054;83;21013;-84
2021/06/29 15:18:32;;;;;;;3.92;2.58;;;;;;;29.95;81.62;100591.10;1713788;83;21044;-84
2021/06/29 15:20:58;;;;;;;7.10;3.27;;;;;;;29.81;92.67;100592.63;1744016;81;20921;-84
2021/06/29 15:23:25;;;;;;;4.87;2.95;;;;;;;29.83;83.95;100592.25;1769803;80;21681;-83
2021/06/29 15:25:57;;;;;;;6.95;2.85;;;;;;;29.59;86.25;100590.91;1769337;80;21048;-90
2021/06/29 15:28:23;;;;;;;5.95;3.00;;;;;;;29.41;87.81;100599.16;1769380;80;21040;-83
2021/06/29 15:30:49;;;;;;;7.60;3.42;;;;;;;29.17;88.50;100600.60;1769818;80;21578;-85
2021/06/29 15:33:15;;;;;;;7.20;3.00;;;;;;;28.96;88.76;100595.67;1769686;81;20868;-85
2021/06/29 15:35:41;;;;;;;5.15;3.02;;;;;;;28.79;87.20;100594.94;1748039;81;21144;-84
2021/06/29 15:38:07;;;;;;;5.33;3.20;;;;;;;28.62;89.93;100588.88;1769321;81;20980;-85
2021/06/29 15:40:34;;;;;;;4.37;2.90;;;;;;;28.60;89.85;100590.44;1746546;81;21461;-84
2021/06/29 15:43:00;;;;;;;6.40;3.08;;;;;;;28.67;89.77;100584.94;1769717;81;21039;-84
2021/06/29 15:45:28;;;;;;;4.45;2.75;;;;;;;28.87;91.95;100587.68;1769819;81;21012;-84
2021/06/29 15:47:54;;;;;;;6.62;2.75;;;;;;;29.12;95.87;100591.24;1746063;81;22364;-83
2021/06/29 15:50:22;;;;;;;5.53;3.15;;;;;;;29.35;87.96;100593.77;1769341;81;20974;-84
2021/06/29 15:52:49;;;;;;;4.33;2.85;;;;;;;29.46;85.93;100599.39;1769095;81;21013;-84
2021/06/29 15:55:17;;;;;;;3.90;2.87;;;;;;;29.59;85.29;100595.90;1769553;81;20984;-84
2021/06/29 15:57:44;;;;;;;10.30;3.92;;;;;;;29.69;89.19;100597.75;1744438;81;21396;-83
2021/06/29 16:00:15;;;;;;;13.45;3.00;;;;;;;29.78;93.78;100607.31;1769465;80;21017;-86
2021/06/29 16:02:42;;;;;;;10.82;3.27;;;;;;;29.80;94.15;100611.89;1769157;81;21156;-91
2021/06/29 16:05:11;;;;;;;7.00;3.00;;;;;;;29.82;100.00;100610.88;1769256;80;21012;-84
2021/06/29 16:07:39;;;;;;;10.32;3.20;;;;;;;29.95;100.00;100611.34;1768949;81;21012;-81
2021/06/29 16:10:08;;;;;;;8.68;3.20;;;;;;;29.87;100.00;100609.13;1765943;81;21063;-80
2021/06/29 16:12:34;;;;;;;6.22;3.00;;;;;;;29.90;100.00;100599.81;1769409;80;21223;-84
2021/06/29 16:15:00;;;;;;;10.23;3.47;;;;;;;29.98;100.00;100593.09;1770015;80;21032;-85
2021/06/29 16:17:26;;;;;;;4.10;2.90;;;;;;;30.02;99.86;100592.50;1769607;80;20885;-84
2021/06/29 16:19:53;;;;;;;8.08;3.30;;;;;;;30.04;97.68;100592.91;1769406;80;21015;-84
2021/06/29 16:22:19;;;;;;;8.03;3.05;;;;;;;30.00;100.00;100592.91;1769350;81;21035;-82
2021/06/29 16:24:45;;;;;;;5.67;3.42;;;;;;;29.91;100.00;100597.22;1746099;81;21074;-83
2021/06/29 16:27:11;;;;;;;14.93;3.30;;;;;;;29.78;100.00;100593.41;1770148;80;21480;-85
2021/06/29 16:29:37;;;;;;;7.22;3.05;;;;;;;29.65;100.00;100594.37;1769236;80;20932;-83
2021/06/29 16:32:04;;;;;;;7.75;3.37;;;;;;;29.61;100.00;100584.38;1769167;81;20940;-84
2021/06/29 16:34:30;;;;;;;10.03;3.25;;;;;;;29.55;100.00;100584.55;1769512;81;21059;-85
2021/06/29 16:36:56;;;;;;;8.73;3.30;;;;;;;29.43;100.00;100582.91;1770300;80;21095;-85
2021/06/29 16:39:22;;;;;;;8.60;3.02;;;;;;;29.25;100.00;100582.81;1768771;81;21027;-83
2021/06/29 16:41:48;;;;;;;9.78;3.58;;;;;;;29.04;100.00;100577.14;1769422;81;20896;-84
2021/06/29 16:44:15;;;;;;;8.58;3.22;;;;;;;28.75;100.00;100573.52;1769528;80;20837;-83
2021/06/29 16:46:42;;;;;;;7.70;3.22;;;;;;;28.56;100.00;100577.11;1768929;81;21024;-89
2021/06/29 16:49:08;;;;;;;9.63;3.67;;;;;;;28.35;100.00;100578.48;1769023;80;21016;-83
2021/06/29 16:51:34;;;;;;;10.85;3.62;;;;;;;28.13;100.00;100579.46;1769083;81;21531;-83
2021/06/29 16:54:00;;;;;;;10.35;3.72;;;;;;;27.92;100.00;100574.48;1768969;81;20984;-83
2021/06/29 16:56:26;;;;;;;9.88;3.95;;;;;;;27.71;100.00;100579.95;1769557;80;20900;-82
2021/06/29 16:58:53;;;;;;;15.68;3.75;;;;;;;27.47;100.00;100581.20;1769555;80;21638;-83
2021/06/29 17:01:24;;;;;;;9.25;3.80;;;;;;;27.27;100.00;100586.09;1769462;80;21888;-83
2021/06/29 17:03:50;;;;;;;9.48;3.60;;;;;;;27.06;100.00;100581.58;1672541;85;21118;-83
2021/06/29 17:06:16;;;;;;;8.00;3.65;;;;;;;26.82;100.00;100585.56;1671996;84;21047;-82
2021/06/29 17:08:42;;;;;;;6.17;2.98;;;;;;;26.55;100.00;100582.75;1673616;85;20956;-83
2021/06/29 17:11:09;;;;;;;15.15;4.10;;;;;;;26.34;100.00;100589.26;1668637;85;21619;-83
2021/06/29 17:13:37;;;;;;;14.25;3.25;;;;;;;26.18;100.00;100592.14;1649698;85;21112;-83
2021/06/29 17:16:04;;;;;;;11.73;3.27;;;;;;;26.04;100.00;100606.46;1672809;85;21014;-83
2021/06/29 17:18:30;;;;;;;12.78;3.42;;;;;;;25.93;100.00;100618.66;1671422;85;21076;-83
2021/06/29 17:20:56;;;;;;;10.30;3.50;;;;;;;25.81;100.00;100618.78;1671966;85;21024;-83
2021/06/29 17:23:22;;;;;;;5.08;3.30;;;;;;;25.63;100.00;100621.75;1673168;85;21119;-83
2021/06/29 17:25:49;;;;;;;9.43;4.08;;;;;;;25.41;100.00;100629.54;1672771;85;21049;-83
2021/06/29 17:28:15;;;;;;;10.93;4.00;;;;;;;25.24;100.00;100620.30;1672546;84;20993;-83
2021/06/29 17:30:42;;;;;;;7.80;3.42;;;;;;;25.08;100.00;100627.17;1671871;85;21101;-86
2021/06/29 17:33:08;;;;;;;9.23;3.90;;;;;;;24.91;100.00;100617.30;1672800;85;21086;-83
2021/06/29 17:35:34;;;;;;;10.28;4.28;;;;;;;24.74;100.00;100623.99;1672227;85;21555;-83
2021/06/29 17:38:00;;;;;;;14.05;4.50;;;;;;;24.55;100.00;100619.16;1649166;85;21120;-83
2021/06/29 17:40:26;;;;;;;9.48;3.95;;;;;;;24.36;100.00;100619.83;1649372;85;20893;-83
2021/06/29 17:42:52;;;;;;;9.53;4.28;;;;;;;24.20;100.00;100621.73;1649014;85;20979;-88
2021/06/29 17:45:19;;;;;;;10.25;4.35;;;;;;;24.07;100.00;100625.12;1649433;85;21010;-84
2021/06/29 17:47:45;;;;;;;8.18;4.28;;;;;;;23.90;100.00;100623.45;1648812;85;21480;-84
2021/06/29 17:50:12;;;;;;;20.37;4.75;;;;;;;23.80;100.00;100624.76;1670914;85;21155;-89
2021/06/29 17:52:38;;;;;;;13.60;5.30;;;;;;;23.67;100.00;100634.73;1671119;85;21017;-83
2021/06/29 17:55:06;;;;;;;8.35;3.98;;;;;;;23.53;100.00;100641.97;1671289;85;21047;-85
2021/06/29 17:57:34;;;;;;;12.58;4.70;;;;;;;23.37;100.00;100643.84;1672211;85;21044;-84
2021/06/29 18:00:00;;;;;;;10.60;4.67;;;;;;;23.21;100.00;100651.99;1693966;81;21021;-82
2021/06/29 18:02:26;;;;;;;17.98;4.85;;;;;;;23.10;100.00;100651.64;1765352;81;21884;-83
2021/06/29 18:04:52;;;;;;;11.48;5.10;;;;;;;23.04;100.00;100654.39;1769863;81;20948;-84
2021/06/29 18:07:18;;;;;;;15.83;5.30;;;;;;;22.92;100.00;100656.52;1769397;81;20884;-82
2021/06/29 18:09:44;;;;;;;12.73;4.83;;;;;;;22.85;100.00;100661.77;1766119;81;21561;-82
2021/06/29 18:12:10;;;;;;;12.85;4.70;;;;;;;22.70;100.00;100662.42;1769755;80;20861;-88
2021/06/29 18:14:36;;;;;;;12.47;4.92;;;;;;;22.57;100.00;100665.72;1769716;80;21200;-83
2021/06/29 18:17:03;;;;;;;13.95;5.05;;;;;;;22.44;100.00;100668.44;1769714;81;21495;-85
2021/06/29 18:19:29;;;;;;;13.03;5.17;;;;;;;22.33;100.00;100668.62;1769618;80;21063;-82
2021/06/29 18:21:55;;;;;;;15.30;4.92;;;;;;;22.25;100.00;100674.98;1769634;80;20830;-80
2021/06/29 18:24:20;;;;;;;13.18;5.50;;;;;;;22.19;100.00;100677.13;1769503;80;20968;-81
2021/06/29 18:26:47;;;;;;;18.40;5.33;;;;;;;22.15;100.00;100688.53;1769544;80;21811;-81
2021/06/29 18:29:13;;;;;;;9.78;4.78;;;;;;;22.09;100.00;100680.81;1769548;80;21357;-81
2021/06/29 18:31:40;;;;;;;11.38;5.12;;;;;;;22.03;100.00;100689.84;1769298;80;21110;-80
2021/06/29 18:34:06;;;;;;;16.48;5.35;;;;;;;21.90;100.00;100686.78;1769557;80;21007;-82
2021/06/29 18:36:33;;;;;;;13.80;6.05;;;;;;;21.81;100.00;100686.05;1769714;81;21070;-85
2021/06/29 18:39:00;;;;;;;12.07;5.55;;;;;;;21.69;100.00;100688.94;1769572;81;21062;-82
2021/06/29 18:41:30;;;;;;;12.15;5.92;;;;;;;21.63;100.00;100688.90;1751280;80;21020;-81
2021/06/29 18:43:56;;;;;;;11.95;5.40;;;;;;;21.60;100.00;100687.39;1705832;84;20996;-81
2021/06/29 18:46:26;;;;;;;13.38;6.42;;;;;;;21.58;100.00;100689.08;1705886;83;21425;-82
2021/06/29 18:48:52;;;;;;;14.85;5.50;;;;;;;21.53;100.00;100687.34;1706028;83;21059;-85
2021/06/29 18:51:18;;;;;;;24.57;5.92;;;;;;;21.47;100.00;100682.36;1684303;83;21280;-82
2021/06/29 18:53:45;;;;;;;14.15;6.37;;;;;;;21.43;100.00;100686.34;1684323;83;21020;-82
2021/06/29 18:56:18;;;;;;;10.63;6.10;;;;;;;21.40;100.00;100687.58;1707649;83;20984;-82
2021/06/29 18:58:38;;;;;;;15.50;6.20;;;;;;;21.41;100.00;100689.97;1703416;83;21593;-81
2021/06/29 19:01:05;;;;;;;9.55;6.05;;;;;;;21.36;100.00;100697.03;1707875;83;21000;-81
2021/06/29 19:03:32;;;;;;;16.17;6.03;;;;;;;21.36;100.00;100698.95;1683795;84;21338;-81
2021/06/29 19:05:58;;;;;;;10.32;5.70;;;;;;;21.30;100.00;100704.61;1709270;83;21023;-82
2021/06/29 19:08:24;;;;;;;15.90;6.78;;;;;;;21.28;100.00;100706.06;1684284;83;21047;-81
2021/06/29 19:10:50;;;;;;;14.93;6.62;;;;;;;21.23;100.00;100706.24;1707678;83;20860;-82
2021/06/29 19:13:17;;;;;;;12.50;7.00;;;;;;;21.16;100.00;100710.07;1707765;83;21003;-81
2021/06/29 19:15:43;;;;;;;21.52;6.92;;;;;;;21.08;100.00;100714.44;1707308;82;21875;-81
2021/06/29 19:18:09;;;;;;;13.95;7.22;;;;;;;21.04;100.00;100710.76;1707769;84;21015;-81
2021/06/29 19:20:36;;;;;;;14.90;6.95;;;;;;;21.00;100.00;100707.87;1707945;83;20987;-81
2021/06/29 19:23:02;;;;;;;14.50;6.90;;;;;;;20.99;100.00;100705.45;1684082;84;20968;-84
2021/06/29 19:25:29;;;;;;;14.28;6.75;;;;;;;20.94;100.00;100700.97;1707968;83;21039;-81
2021/06/29 19:27:55;;;;;;;17.70;7.85;;;;;;;20.92;100.00;100698.31;1707718;83;21042;-84
2021/06/29 19:30:21;;;;;;;16.02;7.30;;;;;;;20.90;100.00;100700.56;1686278;84;21082;-79
2021/06/29 19:32:48;;;;;;;20.88;8.00;;;;;;;20.82;100.00;100698.91;1630062;86;21076;-81
2021/06/29 19:35:15;;;;;;;14.45;7.40;;;;;;;20.80;100.00;100697.62;1597433;89;20982;-81
2021/06/29 19:37:42;;;;;;;15.35;7.28;;;;;;;20.75;100.00;100696.41;1626209;87;21068;-84
2021/06/29 19:40:10;;;;;;;14.13;7.42;;;;;;;20.73;100.00;100691.81;1597335;89;21944;-81
2021/06/29 19:42:37;;;;;;;14.40;7.85;;;;;;;20.70;100.00;100693.27;1626423;87;20954;-81
2021/06/29 19:45:05;;;;;;;23.47;8.65;;;;;;;20.68;100.00;100694.72;1597455;89;21545;-81
2021/06/29 19:47:31;;;;;;;17.92;7.65;;;;;;;20.63;100.00;100699.25;1627074;87;21084;-81
2021/06/29 19:49:57;;;;;;;15.35;8.23;;;;;;;20.61;100.00;100693.85;1625997;86;21165;-82
2021/06/29 19:52:23;;;;;;;16.77;8.95;;;;;;;20.59;100.00;100697.50;1597633;89;21076;-81
2021/06/29 19:54:49;;;;;;;21.90;10.23;;;;;;;20.56;100.00;100698.13;1624951;87;20996;-82
2021/06/29 19:57:15;;;;;;;19.57;9.90;;;;;;;20.60;100.00;100701.27;1618576;87;20900;-82
2021/06/29 19:59:41;;;;;;;19.98;9.38;;;;;;;20.64;100.00;100694.00;1707347;83;20999;-86
2021/06/29 20:02:08;;;;;;;18.02;8.73;;;;;;;20.67;100.00;100698.03;1707637;83;20991;-81
2021/06/29 20:04:34;;;;;;;19.50;8.73;;;;;;;20.63;100.00;100706.09;1707834;84;21120;-81
2021/06/29 20:07:00;;;;;;;20.40;8.78;;;;;;;20.62;100.00;100709.17;1707862;83;20888;-82
2021/06/29 20:09:26;;;;;;;17.80;8.40;;;;;;;20.63;100.00;100710.77;1708022;83;20929;-81
2021/06/29 20:11:52;;;;;;;17.00;7.92;;;;;;;20.58;100.00;100706.26;1707688;83;20857;-81
2021/06/29 20:14:18;;;;;;;20.80;8.80;;;;;;;20.54;100.00;100712.16;1707920;83;21031;-78
2021/06/29 20:16:46;;;;;;;19.98;9.08;;;;;;;20.50;100.00;100706.23;1707567;84;21068;-82
2021/06/29 20:19:12;;;;;;;22.95;9.88;;;;;;;20.51;100.00;100701.81;1707282;84;21559;-81
2021/06/29 20:21:38;;;;;;;24.30;9.50;;;;;;;20.52;100.00;100690.30;1707798;83;21020;-81
2021/06/29 20:24:06;;;;;;;19.02;8.95;;;;;;;20.52;100.00;100692.50;1707603;84;20965;-81
2021/06/29 20:26:32;;;;;;;17.10;8.90;;;;;;;20.45;100.00;100681.22;1707673;84;21622;-84
2021/06/29 20:29:00;;;;;;;23.60;9.23;;;;;;;20.43;100.00;100676.05;1707837;84;21128;-81
2021/06/29 20:31:26;;;;;;;18.32;8.30;;;;;;;20.41;100.00;100678.33;1707470;83;21027;-81
2021/06/29 20:33:52;;;;;;;24.47;9.43;;;;;;;20.35;100.00;100688.37;1707566;83;21023;-85
2021/06/29 20:36:18;;;;;;;27.27;8.68;;;;;;;20.27;100.00;100684.53;1707817;83;20951;-81
2021/06/29 20:38:44;;;;;;;15.63;8.70;;;;;;;20.24;100.00;100685.75;1707676;83;20889;-80
2021/06/29 20:41:10;;;;;;;14.68;8.63;;;;;;;20.18;100.00;100692.75;1704036;84;22035;-81
2021/06/29 20:43:36;;;;;;;26.05;9.70;;;;;;;20.06;100.00;100686.28;1703637;84;20872;-81
2021/06/29 20:46:02;;;;;;;22.17;8.38;;;;;;;20.02;100.00;100688.86;1707683;83;20988;-81
2021/06/29 20:48:28;;;;;;;24.02;9.08;;;;;;;19.99;100.00;100694.18;1707710;84;21000;-81
2021/06/29 20:50:54;;;;;;;15.68;8.70;;;;;;;19.91;100.00;100691.13;1705626;83;20978;-81
2021/06/29 20:53:20;;;;;;;19.62;8.93;;;;;;;19.87;100.00;100692.88;1705568;84;21070;-79
2021/06/29 20:55:46;;;;;;;20.30;9.68;;;;;;;19.85;100.00;100692.95;1705416;84;21656;-81
2021/06/29 20:58:12;;;;;;;22.48;10.08;;;;;;;19.88;100.00;100690.94;1705465;84;20892;-81
2021/06/29 21:00:38;;;;;;;17.25;9.45;;;;;;;19.92;100.00;100692.73;1705491;84;20939;-81
2021/06/29 21:03:05;;;;;;;23.65;10.05;;;;;;;19.96;100.00;100692.88;1705247;83;20967;-81
2021/06/29 21:05:31;;;;;;;23.87;9.80;;;;;;;19.92;100.00;100693.30;1705336;84;20990;-78
2021/06/29 21:07:57;;;;;;;29.12;10.05;;;;;;;19.89;100.00;100689.84;1695734;84;21021;-81
2021/06/29 21:10:23;;;;;;;25.15;8.88;;;;;;;19.84;100.00;100685.31;1696057;84;20919;-83
2021/06/29 21:12:52;;;;;;;28.47;10.53;;;;;;;19.85;100.00;100684.17;1695963;84;21008;-81
2021/06/29 21:15:18;;;;;;;21.10;9.33;;;;;;;19.80;100.00;100682.98;1696172;83;21031;-81
2021/06/29 21:17:44;;;;;;;25.02;9.10;;;;;;;19.71;100.00;100688.44;1695872;84;21987;-79
2021/06/29 21:20:12;;;;;;;20.70;9.75;;;;;;;19.67;100.00;100680.61;1696308;84;21015;-81
2021/06/29 21:22:39;;;;;;;19.92;9.58;;;;;;;19.64;100.00;100683.16;1696243;84;21000;-81
2021/06/29 21:25:06;;;;;;;22.85;10.00;;;;;;;19.58;100.00;100687.16;1696462;84;21074;-81
2021/06/29 21:27:32;;;;;;;20.23;9.38;;;;;;;19.54;100.00;100687.56;1696342;84;21056;-81
2021/06/29 21:29:58;;;;;;;26.50;9.13;;;;;;;19.51;100.00;100691.73;1672738;84;21253;-81
2021/06/29 21:32:24;;;;;;;22.10;9.78;;;;;;;19.48;100.00;100691.80;1700219;84;21628;-81
2021/06/29 21:34:51;;;;;;;26.95;10.03;;;;;;;19.50;100.00;100697.77;1705446;83;21475;-81
2021/06/29 21:37:19;;;;;;;23.18;10.05;;;;;;;19.51;100.00;100699.94;1705488;83;21071;-81
2021/06/29 21:39:46;;;;;;;22.73;10.80;;;;;;;19.48;100.00;100701.94;1705282;84;20984;-81
2021/06/29 21:42:12;;;;;;;21.42;10.75;;;;;;;19.44;100.00;100699.04;1705446;84;21175;-81
2021/06/29 21:44:38;;;;;;;25.27;9.28;;;;;;;19.45;100.00;100701.20;1705346;83;21055;-81
2021/06/29 21:47:05;;;;;;;23.52;9.73;;;;;;;19.40;100.00;100707.61;1705600;82;21464;-81
2021/06/29 21:49:31;;;;;;;22.70;9.30;;;;;;;19.31;100.00;100704.61;1705578;83;20984;-81
2021/06/29 21:51:58;;;;;;;20.00;9.40;;;;;;;19.25;100.00;100701.21;1705327;84;21740;-81
2021/06/29 21:54:23;;;;;;;17.95;10.05;;;;;;;19.22;100.00;100702.64;1705606;84;21308;-80
2021/06/29 21:56:49;;;;;;;24.23;9.98;;;;;;;19.19;100.00;100701.91;1705559;83;20888;-81
2021/06/29 21:59:16;;;;;;;23.55;9.88;;;;;;;19.16;100.00;100701.73;1705601;84;21030;-81
2021/06/29 22:01:44;;;;;;;18.92;9.55;;;;;;;19.15;100.00;100704.20;1682683;83;21080;-81
2021/06/29 22:04:12;;;;;;;23.02;10.50;;;;;;;19.11;100.00;100696.41;1705317;84;21577;-81
2021/06/29 22:06:38;;;;;;;23.98;10.48;;;;;;;19.11;100.00;100696.41;1705112;84;21112;-80
2021/06/29 22:09:05;;;;;;;24.60;10.50;;;;;;;19.10;100.00;100689.34;1705542;84;21020;-78
2021/06/29 22:11:31;;;;;;;23.42;11.22;;;;;;;19.08;100.00;100691.57;1705311;84;20972;-81
2021/06/29 22:13:57;;;;;;;21.33;10.10;;;;;;;19.09;100.00;100698.64;1705659;84;21268;-81
2021/06/29 22:16:24;;;;;;;23.07;10.32;;;;;;;19.03;100.00;100689.77;1705637;83;21561;-81
2021/06/29 22:18:50;;;;;;;20.10;9.25;;;;;;;18.94;100.00;100689.75;1705320;84;21967;-81
2021/06/29 22:21:16;;;;;;;20.48;9.48;;;;;;;18.86;100.00;100700.06;1705649;84;20967;-79
2021/06/29 22:23:42;;;;;;;22.27;11.05;;;;;;;18.77;100.00;100702.75;1705454;84;21076;-87
2021/06/29 22:26:08;;;;;;;21.75;10.05;;;;;;;18.74;100.00;100698.48;1705458;83;20932;-81
2021/06/29 22:28:34;;;;;;;21.27;9.68;;;;;;;18.71;100.00;100698.50;1705505;84;20932;-79
2021/06/29 22:31:03;;;;;;;25.35;9.68;;;;;;;18.70;100.00;100699.61;1705576;82;21040;-81
2021/06/29 22:33:28;;;;;;;26.10;10.08;;;;;;;18.70;100.00;100699.61;1705187;84;21038;-81
2021/06/29 22:35:54;;;;;;;18.40;9.33;;;;;;;18.71;100.00;100696.34;1705570;84;21638;-81
2021/06/29 22:38:21;;;;;;;25.77;10.88;;;;;;;18.75;100.00;100700.88;1705210;84;21032;-78
2021/06/29 22:40:46;;;;;;;24.50;11.65;;;;;;;18.78;100.00;100694.80;1705085;83;20860;-80
2021/06/29 22:43:13;;;;;;;28.25;13.30;;;;;;;18.79;100.00;100697.76;1705495;83;21911;-78
2021/06/29 22:45:39;;;;;;;25.80;10.90;;;;;;;18.80;100.00;100689.03;1705412;84;20961;-81
2021/06/29 22:48:05;;;;;;;22.77;10.65;;;;;;;18.78;100.00;100692.06;1705395;82;21047;-81
2021/06/29 22:50:32;;;;;;;25.00;10.88;;;;;;;18.73;100.00;100685.89;1706236;84;21027;-80
2021/06/29 22:52:59;;;;;;;24.30;10.88;;;;;;;18.68;100.00;100691.47;1707804;83;21023;-81
2021/06/29 22:55:27;;;;;;;27.85;10.80;;;;;;;18.65;100.00;100690.20;1707597;84;22044;-81
2021/06/29 22:57:54;;;;;;;30.60;11.22;;;;;;;18.66;100.00;100691.00;1707793;82;20979;-77
2021/06/29 23:00:24;;;;;;;23.02;11.50;;;;;;;18.64;100.00;100695.95;1707850;83;21510;-81
2021/06/29 23:02:50;;;;;;;42.17;10.18;;;;;;;18.64;100.00;100693.23;1707645;83;21511;-81
2021/06/29 23:05:17;;;;;;;21.90;9.93;;;;;;;18.58;100.00;100691.98;1708194;83;20976;-80
2021/06/29 23:07:44;;;;;;;23.90;9.15;;;;;;;18.50;100.00;100698.21;1707749;83;21274;-77
2021/06/29 23:10:13;;;;;;;25.37;10.15;;;;;;;18.45;100.00;100694.23;1707420;83;21043;-80
2021/06/29 23:12:39;;;;;;;23.15;9.83;;;;;;;18.43;100.00;100694.30;1708046;83;21590;-81
2021/06/29 23:15:07;;;;;;;24.00;10.05;;;;;;;18.44;100.00;100691.23;1707686;83;20861;-80
2021/06/29 23:17:34;;;;;;;29.92;11.85;;;;;;;18.46;100.00;100699.13;1707881;83;21043;-79
2021/06/29 23:20:00;;;;;;;22.22;9.83;;;;;;;18.45;100.00;100697.52;1707880;83;21900;-81
2021/06/29 23:22:27;;;;;;;32.00;10.18;;;;;;;18.46;100.00;100697.77;1707830;83;20972;-80
2021/06/29 23:24:53;;;;;;;23.45;11.05;;;;;;;18.49;100.00;100702.60;1729711;82;20964;-81
2021/06/29 23:27:18;;;;;;;26.62;10.50;;;;;;;18.45;100.00;100702.98;1729570;83;21063;-81
2021/06/29 23:29:44;;;;;;;23.50;10.35;;;;;;;18.49;100.00;100696.58;1729456;83;20983;-77
2021/06/29 23:32:10;;;;;;;23.00;10.88;;;;;;;18.51;100.00;100699.02;1729636;83;20987;-80
2021/06/29 23:34:36;;;;;;;26.87;10.08;;;;;;;18.47;100.00;100697.47;1730001;83;20884;-80
2021/06/29 23:37:03;;;;;;;22.52;9.00;;;;;;;18.43;100.00;100694.30;1729595;83;21587;-80
2021/06/29 23:39:29;;;;;;;29.87;10.23;;;;;;;18.39;100.00;100692.19;1729367;83;21090;-81
2021/06/29 23:41:57;;;;;;;25.23;10.35;;;;;;;18.42;100.00;100694.05;1729237;83;20995;-81
2021/06/29 23:44:23;;;;;;;20.65;10.13;;;;;;;18.42;100.00;100698.95;1728973;83;21171;-80
2021/06/29 23:46:49;;;;;;;27.00;10.88;;;;;;;18.44;100.00;100701.35;1729542;83;21633;-80
2021/06/29 23:49:17;;;;;;;33.67;11.18;;;;;;;18.43;100.00;100703.28;1720996;83;20911;-80
2021/06/29 23:51:42;;;;;;;22.07;11.18;;;;;;;18.44;100.00;100701.35;1707447;83;21401;-85
2021/06/29 23:54:08;;;;;;;24.98;10.23;;;;;;;18.47;100.00;100702.09;1707659;83;20956;-80
2021/06/29 23:56:34;;;;;;;20.88;10.00;;;;;;;18.47;100.00;100700.20;1708010;83;21876;-81
2021/06/29 23:59:00;;;;;;;25.30;10.75;;;;;;;18.49;100.00;100699.88;1685967;84;20892;-80
